HAZ2814 ZBAA-ZYTX
Flight info
| Callsign | HAZ2814 |
|---|---|
| Flight time | 1h 1m |
| Altitude | 29100 |
| Route | DOTRA5Y DOTRA B334 KAKAT W31 CHG A575 OMDUS OMD74A |
| Aircraft | A321/M-SDE3FGHIRWY/LB1 |
Departure
| Time | 2026-04-24 15:10 |
|---|---|
| Airport | Beijing Capital International Airport (ZBAA) |
Arrival
| Time | 2026-04-24 16:12 |
|---|---|
| Airport | Shenyang Taoxian International Airport (ZYTX) |
| Time | Latitude | Longitude | Altitude | Speed | Heading |
|---|---|---|---|---|---|
| 2026-04-24 14:46 | 40.07296 | 116.60791 | 121 ft | 0 kts | 263° |
| 2026-04-24 14:57 | 40.07297 | 116.60799 | 124 ft | 2 kts | 263° |
| 2026-04-24 14:58 | 40.07299 | 116.60823 | 120 ft | 3 kts | 263° |
| 2026-04-24 14:58 | 40.07302 | 116.60854 | 117 ft | 4 kts | 263° |
| 2026-04-24 14:58 | 40.07306 | 116.60889 | 119 ft | 4 kts | 238° |
| 2026-04-24 14:58 | 40.07326 | 116.60912 | 122 ft | 4 kts | 194° |
| 2026-04-24 14:59 | 40.07345 | 116.60914 | 120 ft | 0 kts | 171° |
| 2026-04-24 15:01 | 40.07342 | 116.60915 | 122 ft | 3 kts | 174° |
| 2026-04-24 15:01 | 40.07293 | 116.60920 | 121 ft | 12 kts | 173° |
| 2026-04-24 15:01 | 40.07220 | 116.60932 | 122 ft | 17 kts | 173° |
| 2026-04-24 15:02 | 40.07103 | 116.60950 | 121 ft | 17 kts | 173° |
| 2026-04-24 15:02 | 40.06993 | 116.60967 | 121 ft | 14 kts | 173° |
| 2026-04-24 15:02 | 40.06931 | 116.60920 | 122 ft | 11 kts | 263° |
| 2026-04-24 15:02 | 40.06921 | 116.60815 | 124 ft | 14 kts | 263° |
| 2026-04-24 15:03 | 40.06908 | 116.60666 | 123 ft | 19 kts | 263° |
| 2026-04-24 15:03 | 40.06891 | 116.60482 | 124 ft | 20 kts | 263° |
| 2026-04-24 15:03 | 40.06876 | 116.60321 | 122 ft | 13 kts | 263° |
| 2026-04-24 15:03 | 40.06870 | 116.60253 | 120 ft | 0 kts | 263° |
| 2026-04-24 15:04 | 40.06869 | 116.60246 | 120 ft | 4 kts | 263° |
| 2026-04-24 15:05 | 40.06862 | 116.60165 | 124 ft | 14 kts | 263° |
| 2026-04-24 15:05 | 40.06819 | 116.60057 | 121 ft | 14 kts | 191° |
| 2026-04-24 15:05 | 40.06719 | 116.60067 | 121 ft | 16 kts | 174° |
| 2026-04-24 15:05 | 40.06585 | 116.60088 | 122 ft | 22 kts | 173° |
| 2026-04-24 15:06 | 40.06428 | 116.60113 | 121 ft | 22 kts | 173° |
| 2026-04-24 15:06 | 40.06276 | 116.60136 | 124 ft | 22 kts | 173° |
| 2026-04-24 15:06 | 40.06131 | 116.60159 | 121 ft | 21 kts | 173° |
| 2026-04-24 15:06 | 40.05990 | 116.60180 | 121 ft | 20 kts | 173° |
| 2026-04-24 15:07 | 40.05857 | 116.60202 | 122 ft | 19 kts | 173° |
| 2026-04-24 15:07 | 40.05729 | 116.60222 | 121 ft | 18 kts | 173° |
| 2026-04-24 15:07 | 40.05608 | 116.60241 | 122 ft | 17 kts | 173° |
| 2026-04-24 15:07 | 40.05546 | 116.60191 | 120 ft | 10 kts | 257° |
| 2026-04-24 15:08 | 40.05543 | 116.60165 | 123 ft | 0 kts | 261° |
| 2026-04-24 15:08 | 40.05543 | 116.60164 | 123 ft | 1 kts | 261° |
| 2026-04-24 15:08 | 40.05540 | 116.60114 | 124 ft | 9 kts | 276° |
| 2026-04-24 15:08 | 40.05575 | 116.60040 | 120 ft | 10 kts | 307° |
| 2026-04-24 15:09 | 40.05632 | 116.60003 | 120 ft | 10 kts | 350° |
| 2026-04-24 15:09 | 40.05772 | 116.59980 | 124 ft | 44 kts | 353° |
| 2026-04-24 15:09 | 40.06304 | 116.59896 | 124 ft | 107 kts | 353° |
| 2026-04-24 15:09 | 40.07211 | 116.59755 | 121 ft | 153 kts | 353° |
| 2026-04-24 15:10 | 40.08380 | 116.59578 | 224 ft | 180 kts | 355° |
| 2026-04-24 15:10 | 40.09624 | 116.59390 | 748 ft | 179 kts | 354° |
| 2026-04-24 15:10 | 40.10864 | 116.59194 | 1299 ft | 180 kts | 353° |
| 2026-04-24 15:10 | 40.12120 | 116.58993 | 1771 ft | 184 kts | 353° |
| 2026-04-24 15:11 | 40.13402 | 116.58789 | 2206 ft | 187 kts | 352° |
| 2026-04-24 15:11 | 40.14705 | 116.58582 | 2664 ft | 190 kts | 351° |
| 2026-04-24 15:11 | 40.16025 | 116.58372 | 3092 ft | 193 kts | 350° |
| 2026-04-24 15:11 | 40.17409 | 116.58156 | 3293 ft | 210 kts | 351° |
| 2026-04-24 15:12 | 40.18923 | 116.58322 | 3426 ft | 229 kts | 13° |
| 2026-04-24 15:12 | 40.22295 | 116.59586 | 3830 ft | 274 kts | 15° |
| 2026-04-24 15:12 | 40.24146 | 116.60301 | 4524 ft | 280 kts | 15° |
| 2026-04-24 15:13 | 40.26023 | 116.61027 | 5297 ft | 283 kts | 16° |
| 2026-04-24 15:13 | 40.27915 | 116.61757 | 6088 ft | 285 kts | 15° |
| 2026-04-24 15:13 | 40.29823 | 116.62490 | 6855 ft | 287 kts | 15° |
| 2026-04-24 15:13 | 40.31744 | 116.63228 | 7605 ft | 289 kts | 15° |
| 2026-04-24 15:14 | 40.33679 | 116.63970 | 8354 ft | 291 kts | 15° |
| 2026-04-24 15:14 | 40.35632 | 116.64718 | 9095 ft | 294 kts | 15° |
| 2026-04-24 15:14 | 40.37601 | 116.65473 | 9831 ft | 297 kts | 15° |
| 2026-04-24 15:14 | 40.39614 | 116.66245 | 10264 ft | 311 kts | 15° |
| 2026-04-24 15:15 | 40.41763 | 116.67068 | 10404 ft | 333 kts | 15° |
| 2026-04-24 15:15 | 40.44066 | 116.67949 | 10535 ft | 355 kts | 15° |
| 2026-04-24 15:15 | 40.46507 | 116.68886 | 10669 ft | 375 kts | 15° |
| 2026-04-24 15:15 | 40.49049 | 116.69865 | 11092 ft | 384 kts | 15° |
| 2026-04-24 15:16 | 40.51621 | 116.70860 | 11689 ft | 387 kts | 15° |
| 2026-04-24 15:16 | 40.54217 | 116.71863 | 12309 ft | 390 kts | 15° |
| 2026-04-24 15:16 | 40.56828 | 116.72873 | 12964 ft | 392 kts | 14° |
| 2026-04-24 15:16 | 40.59450 | 116.73887 | 13626 ft | 394 kts | 14° |
| 2026-04-24 15:17 | 40.62090 | 116.74908 | 14217 ft | 396 kts | 14° |
| 2026-04-24 15:17 | 40.64741 | 116.75936 | 14775 ft | 398 kts | 14° |
| 2026-04-24 15:17 | 40.67407 | 116.76969 | 15312 ft | 400 kts | 14° |
| 2026-04-24 15:17 | 40.70085 | 116.78008 | 15829 ft | 402 kts | 14° |
| 2026-04-24 15:18 | 40.72773 | 116.79051 | 16359 ft | 404 kts | 14° |
| 2026-04-24 15:18 | 40.75496 | 116.79985 | 16882 ft | 405 kts | 8° |
| 2026-04-24 15:18 | 40.78295 | 116.80352 | 17405 ft | 405 kts | 0° |
| 2026-04-24 15:18 | 40.81113 | 116.80486 | 17970 ft | 406 kts | 359° |
| 2026-04-24 15:19 | 40.83935 | 116.80670 | 18472 ft | 409 kts | 4° |
| 2026-04-24 15:19 | 40.86726 | 116.81527 | 18884 ft | 414 kts | 13° |
| 2026-04-24 15:19 | 40.89495 | 116.82619 | 19318 ft | 417 kts | 15° |
| 2026-04-24 15:19 | 40.92205 | 116.84094 | 19762 ft | 422 kts | 21° |
| 2026-04-24 15:20 | 40.94883 | 116.85711 | 20198 ft | 425 kts | 22° |
| 2026-04-24 15:20 | 40.97541 | 116.87323 | 20623 ft | 427 kts | 21° |
| 2026-04-24 15:20 | 41.00249 | 116.88971 | 21026 ft | 430 kts | 21° |
| 2026-04-24 15:20 | 41.02979 | 116.90633 | 21444 ft | 433 kts | 22° |
| 2026-04-24 15:21 | 41.05758 | 116.92165 | 21853 ft | 432 kts | 13° |
| 2026-04-24 15:21 | 41.08709 | 116.92720 | 22239 ft | 429 kts | 358° |
| 2026-04-24 15:21 | 41.11699 | 116.92825 | 22651 ft | 432 kts | 0° |
| 2026-04-24 15:21 | 41.14710 | 116.93038 | 23075 ft | 434 kts | 0° |
| 2026-04-24 15:22 | 41.17737 | 116.93264 | 23498 ft | 436 kts | 1° |
| 2026-04-24 15:22 | 41.20776 | 116.93490 | 23856 ft | 439 kts | 1° |
| 2026-04-24 15:22 | 41.23833 | 116.93713 | 24198 ft | 440 kts | 1° |
| 2026-04-24 15:23 | 41.29806 | 116.95576 | 24842 ft | 452 kts | 26° |
| 2026-04-24 15:23 | 41.34530 | 117.01211 | 25544 ft | 462 kts | 44° |
| 2026-04-24 15:23 | 41.36699 | 117.04374 | 25920 ft | 463 kts | 45° |
| 2026-04-24 15:24 | 41.43219 | 117.13916 | 27047 ft | 463 kts | 44° |
| 2026-04-24 15:25 | 41.46812 | 117.19173 | 27802 ft | 460 kts | 44° |
| 2026-04-24 15:25 | 41.51822 | 117.26497 | 28888 ft | 454 kts | 44° |
| 2026-04-24 15:26 | 41.58146 | 117.35757 | 29159 ft | 445 kts | 44° |
| 2026-04-24 15:27 | 41.70605 | 117.54124 | 29164 ft | 444 kts | 44° |
| 2026-04-24 15:29 | 41.83046 | 117.72547 | 29180 ft | 444 kts | 44° |
| 2026-04-24 15:31 | 41.97541 | 117.94172 | 29171 ft | 446 kts | 44° |
| 2026-04-24 15:33 | 42.14093 | 118.19094 | 29168 ft | 446 kts | 46° |
| 2026-04-24 15:33 | 42.18138 | 118.30481 | 29166 ft | 462 kts | 76° |
| 2026-04-24 15:34 | 42.18529 | 118.39195 | 29162 ft | 468 kts | 85° |
| 2026-04-24 15:35 | 42.18787 | 118.61145 | 29149 ft | 469 kts | 85° |
| 2026-04-24 15:36 | 42.18880 | 118.69934 | 29154 ft | 469 kts | 85° |
| 2026-04-24 15:36 | 42.18653 | 118.78666 | 29155 ft | 473 kts | 96° |
| 2026-04-24 15:36 | 42.17878 | 118.82992 | 29153 ft | 477 kts | 105° |
| 2026-04-24 15:37 | 42.15028 | 118.91099 | 29151 ft | 480 kts | 117° |
| 2026-04-24 15:37 | 42.11846 | 118.99019 | 29146 ft | 481 kts | 117° |
| 2026-04-24 15:38 | 42.08674 | 119.06946 | 29147 ft | 481 kts | 116° |
| 2026-04-24 15:38 | 42.05495 | 119.14865 | 29152 ft | 481 kts | 117° |
| 2026-04-24 15:39 | 42.02296 | 119.22771 | 29148 ft | 481 kts | 117° |
| 2026-04-24 15:39 | 41.99090 | 119.30665 | 29147 ft | 481 kts | 117° |
| 2026-04-24 15:40 | 41.95885 | 119.38555 | 29151 ft | 481 kts | 117° |
| 2026-04-24 15:40 | 41.92689 | 119.46446 | 29153 ft | 481 kts | 117° |
| 2026-04-24 15:41 | 41.89544 | 119.54366 | 29152 ft | 481 kts | 117° |
| 2026-04-24 15:41 | 41.86420 | 119.62299 | 29153 ft | 481 kts | 117° |
| 2026-04-24 15:42 | 41.83273 | 119.70208 | 29151 ft | 481 kts | 117° |
| 2026-04-24 15:42 | 41.80107 | 119.78104 | 29149 ft | 481 kts | 118° |
| 2026-04-24 15:43 | 41.76935 | 119.85991 | 29151 ft | 481 kts | 118° |
| 2026-04-24 15:43 | 41.73759 | 119.93874 | 29149 ft | 481 kts | 118° |
| 2026-04-24 15:44 | 41.70581 | 120.01753 | 29147 ft | 481 kts | 118° |
| 2026-04-24 15:44 | 41.67916 | 120.08352 | 29140 ft | 482 kts | 118° |
| 2026-04-24 15:45 | 41.64748 | 120.16182 | 29139 ft | 482 kts | 118° |
| 2026-04-24 15:45 | 41.61540 | 120.24049 | 29150 ft | 482 kts | 118° |
| 2026-04-24 15:46 | 41.58321 | 120.31917 | 29140 ft | 483 kts | 118° |
| 2026-04-24 15:46 | 41.55377 | 120.39956 | 29137 ft | 482 kts | 108° |
| 2026-04-24 15:47 | 41.54109 | 120.48686 | 29132 ft | 479 kts | 90° |
| 2026-04-24 15:47 | 41.54430 | 120.57537 | 29137 ft | 478 kts | 84° |
| 2026-04-24 15:48 | 41.54902 | 120.66391 | 29124 ft | 479 kts | 84° |
| 2026-04-24 15:48 | 41.55133 | 120.70832 | 28994 ft | 481 kts | 84° |
| 2026-04-24 15:48 | 41.55365 | 120.75283 | 28570 ft | 481 kts | 84° |
| 2026-04-24 15:49 | 41.55595 | 120.79744 | 28165 ft | 482 kts | 84° |
| 2026-04-24 15:49 | 41.55822 | 120.84215 | 27753 ft | 483 kts | 84° |
| 2026-04-24 15:49 | 41.56046 | 120.88693 | 27356 ft | 484 kts | 84° |
| 2026-04-24 15:49 | 41.56268 | 120.93176 | 26963 ft | 485 kts | 84° |
| 2026-04-24 15:50 | 41.56490 | 120.97671 | 26571 ft | 487 kts | 85° |
| 2026-04-24 15:50 | 41.56711 | 121.02187 | 26206 ft | 488 kts | 84° |
| 2026-04-24 15:50 | 41.56932 | 121.06716 | 25824 ft | 489 kts | 84° |
| 2026-04-24 15:50 | 41.57152 | 121.11249 | 25448 ft | 490 kts | 84° |
| 2026-04-24 15:51 | 41.57373 | 121.15793 | 25077 ft | 491 kts | 84° |
| 2026-04-24 15:51 | 41.57586 | 121.20347 | 24712 ft | 492 kts | 85° |
| 2026-04-24 15:51 | 41.57758 | 121.24911 | 24350 ft | 493 kts | 86° |
| 2026-04-24 15:51 | 41.57890 | 121.29491 | 23994 ft | 494 kts | 86° |
| 2026-04-24 15:52 | 41.58001 | 121.34077 | 23647 ft | 495 kts | 86° |
| 2026-04-24 15:52 | 41.58104 | 121.38673 | 23226 ft | 496 kts | 87° |
| 2026-04-24 15:52 | 41.58213 | 121.43276 | 22814 ft | 495 kts | 87° |
| 2026-04-24 15:52 | 41.58328 | 121.47865 | 22395 ft | 493 kts | 87° |
| 2026-04-24 15:53 | 41.58452 | 121.52431 | 22000 ft | 491 kts | 86° |
| 2026-04-24 15:53 | 41.58578 | 121.56979 | 21604 ft | 489 kts | 86° |
| 2026-04-24 15:53 | 41.58704 | 121.61505 | 21228 ft | 487 kts | 86° |
| 2026-04-24 15:53 | 41.58827 | 121.66017 | 20836 ft | 485 kts | 87° |
| 2026-04-24 15:54 | 41.58945 | 121.70510 | 20458 ft | 483 kts | 87° |
| 2026-04-24 15:54 | 41.59057 | 121.74981 | 20083 ft | 481 kts | 87° |
| 2026-04-24 15:54 | 41.59166 | 121.79439 | 19709 ft | 479 kts | 87° |
| 2026-04-24 15:54 | 41.59273 | 121.83875 | 19345 ft | 477 kts | 87° |
| 2026-04-24 15:55 | 41.59378 | 121.88293 | 18986 ft | 475 kts | 87° |
| 2026-04-24 15:55 | 41.59478 | 121.92696 | 18732 ft | 473 kts | 87° |
| 2026-04-24 15:55 | 41.59575 | 121.97084 | 18744 ft | 473 kts | 87° |
| 2026-04-24 15:55 | 41.59673 | 122.01483 | 18591 ft | 474 kts | 87° |
| 2026-04-24 15:56 | 41.59775 | 122.05867 | 18080 ft | 470 kts | 87° |
| 2026-04-24 15:56 | 41.59823 | 122.10220 | 17542 ft | 467 kts | 92° |
| 2026-04-24 15:56 | 41.59474 | 122.14518 | 17015 ft | 464 kts | 98° |
| 2026-04-24 15:56 | 41.58999 | 122.18767 | 16496 ft | 461 kts | 98° |
| 2026-04-24 15:57 | 41.58531 | 122.22982 | 15979 ft | 456 kts | 98° |
| 2026-04-24 15:57 | 41.58071 | 122.27131 | 15491 ft | 447 kts | 98° |
| 2026-04-24 15:57 | 41.57619 | 122.31202 | 14993 ft | 439 kts | 98° |
| 2026-04-24 15:57 | 41.57173 | 122.35203 | 14507 ft | 432 kts | 99° |
| 2026-04-24 15:58 | 41.56733 | 122.39133 | 14031 ft | 425 kts | 99° |
| 2026-04-24 15:58 | 41.56295 | 122.43009 | 13519 ft | 419 kts | 99° |
| 2026-04-24 15:58 | 41.55862 | 122.46832 | 12987 ft | 414 kts | 99° |
| 2026-04-24 15:58 | 41.55432 | 122.50604 | 12473 ft | 408 kts | 99° |
| 2026-04-24 15:59 | 41.55008 | 122.54307 | 12082 ft | 399 kts | 98° |
| 2026-04-24 15:59 | 41.54596 | 122.57923 | 11830 ft | 388 kts | 98° |
| 2026-04-24 15:59 | 41.54201 | 122.61399 | 11833 ft | 369 kts | 98° |
| 2026-04-24 15:59 | 41.53825 | 122.64703 | 11839 ft | 352 kts | 98° |
| 2026-04-24 16:00 | 41.53466 | 122.67854 | 11839 ft | 335 kts | 98° |
| 2026-04-24 16:00 | 41.53120 | 122.70876 | 11708 ft | 325 kts | 98° |
| 2026-04-24 16:00 | 41.52779 | 122.73825 | 11441 ft | 319 kts | 98° |
| 2026-04-24 16:00 | 41.52440 | 122.76733 | 11052 ft | 314 kts | 98° |
| 2026-04-24 16:01 | 41.52108 | 122.79597 | 10546 ft | 310 kts | 98° |
| 2026-04-24 16:01 | 41.51781 | 122.82409 | 10170 ft | 302 kts | 98° |
| 2026-04-24 16:01 | 41.51461 | 122.85138 | 9795 ft | 294 kts | 98° |
| 2026-04-24 16:01 | 41.51149 | 122.87795 | 9402 ft | 286 kts | 98° |
| 2026-04-24 16:02 | 41.50844 | 122.90378 | 9016 ft | 278 kts | 98° |
| 2026-04-24 16:02 | 41.50547 | 122.92891 | 8627 ft | 271 kts | 98° |
| 2026-04-24 16:02 | 41.50258 | 122.95341 | 8249 ft | 263 kts | 98° |
| 2026-04-24 16:02 | 41.49980 | 122.97704 | 7898 ft | 254 kts | 98° |
| 2026-04-24 16:03 | 41.49712 | 122.99995 | 7520 ft | 246 kts | 98° |
| 2026-04-24 16:03 | 41.49448 | 123.02223 | 7148 ft | 240 kts | 98° |
| 2026-04-24 16:03 | 41.49192 | 123.04393 | 6792 ft | 233 kts | 98° |
| 2026-04-24 16:03 | 41.48942 | 123.06494 | 6451 ft | 227 kts | 98° |
| 2026-04-24 16:04 | 41.48696 | 123.08560 | 6068 ft | 224 kts | 98° |
| 2026-04-24 16:04 | 41.48451 | 123.10606 | 5686 ft | 222 kts | 98° |
| 2026-04-24 16:04 | 41.48205 | 123.12634 | 5306 ft | 220 kts | 98° |
| 2026-04-24 16:04 | 41.47962 | 123.14641 | 4930 ft | 218 kts | 97° |
| 2026-04-24 16:05 | 41.47487 | 123.18602 | 4169 ft | 214 kts | 98° |
| 2026-04-24 16:05 | 41.47265 | 123.20545 | 3789 ft | 210 kts | 95° |
| 2026-04-24 16:06 | 41.47981 | 123.24189 | 3189 ft | 208 kts | 54° |
| 2026-04-24 16:06 | 41.48917 | 123.25652 | 3042 ft | 207 kts | 47° |
| 2026-04-24 16:06 | 41.50742 | 123.28386 | 2999 ft | 189 kts | 47° |
| 2026-04-24 16:07 | 41.51612 | 123.29690 | 3002 ft | 188 kts | 47° |
| 2026-04-24 16:07 | 41.52476 | 123.30987 | 3006 ft | 186 kts | 47° |
| 2026-04-24 16:07 | 41.54191 | 123.33564 | 2772 ft | 179 kts | 47° |
| 2026-04-24 16:08 | 41.54987 | 123.34761 | 2570 ft | 165 kts | 47° |
| 2026-04-24 16:08 | 41.56465 | 123.36983 | 2134 ft | 152 kts | 48° |
| 2026-04-24 16:09 | 41.57824 | 123.39028 | 1734 ft | 146 kts | 49° |
| 2026-04-24 16:09 | 41.58495 | 123.40038 | 1544 ft | 145 kts | 49° |
| 2026-04-24 16:09 | 41.59162 | 123.41043 | 1342 ft | 145 kts | 49° |
| 2026-04-24 16:09 | 41.59830 | 123.42050 | 1152 ft | 145 kts | 50° |
| 2026-04-24 16:10 | 41.61837 | 123.45076 | 586 ft | 145 kts | 48° |
| 2026-04-24 16:11 | 41.63175 | 123.47096 | 220 ft | 144 kts | 49° |
| 2026-04-24 16:11 | 41.63760 | 123.47979 | 203 ft | 103 kts | 48° |
| 2026-04-24 16:11 | 41.64117 | 123.48518 | 204 ft | 50 kts | 48° |
| 2026-04-24 16:12 | 41.64281 | 123.48972 | 210 ft | 18 kts | 78° |
| 2026-04-24 16:12 | 41.64232 | 123.49044 | 207 ft | 11 kts | 188° |
| 2026-04-24 16:12 | 41.64095 | 123.48850 | 213 ft | 21 kts | 228° |
| 2026-04-24 16:13 | 41.63983 | 123.48681 | 210 ft | 25 kts | 229° |
| 2026-04-24 16:13 | 41.63814 | 123.48606 | 205 ft | 12 kts | 139° |
| 2026-04-24 16:14 | 41.63693 | 123.48752 | 203 ft | 12 kts | 138° |
| 2026-04-24 16:14 | 41.63641 | 123.48813 | 209 ft | 5 kts | 139° |
| 2026-04-24 16:14 | 41.63645 | 123.48808 | 204 ft | 0 kts | 139° |